createdAt,value
2018-12-21T00:00:20.197Z,5.50
2018-12-21T00:02:46.396Z,3.77
2018-12-21T00:05:12.630Z,6.03
2018-12-21T00:07:38.788Z,3.80
2018-12-21T00:10:04.994Z,4.30
2018-12-21T00:12:31.145Z,7.23
2018-12-21T00:14:57.349Z,5.30
2018-12-21T00:17:23.504Z,5.33
2018-12-21T00:19:49.716Z,5.77
2018-12-21T00:22:15.900Z,5.33
2018-12-21T00:24:42.795Z,5.87
2018-12-21T00:27:09.171Z,7.53
2018-12-21T00:29:35.383Z,4.10
2018-12-21T00:32:07.774Z,4.20
2018-12-21T00:34:40.161Z,5.67
2018-12-21T00:37:12.503Z,6.67
2018-12-21T00:39:44.990Z,6.50
2018-12-21T00:42:11.141Z,4.23
2018-12-21T00:44:37.329Z,4.10
2018-12-21T00:47:03.541Z,7.27
2018-12-21T00:49:29.717Z,7.33
2018-12-21T00:51:55.933Z,5.67
2018-12-21T00:54:22.140Z,5.43
2018-12-21T00:56:48.359Z,4.23
2018-12-21T00:59:14.558Z,4.43
2018-12-21T01:01:40.792Z,4.10
2018-12-21T01:04:06.987Z,4.23
2018-12-21T01:06:33.241Z,5.23
2018-12-21T01:08:59.437Z,11.23
2018-12-21T01:11:26.384Z,4.70
2018-12-21T01:13:52.646Z,5.63
2018-12-21T01:16:18.873Z,9.10
2018-12-21T01:18:45.152Z,5.63
2018-12-21T01:21:11.350Z,9.10
2018-12-21T01:23:37.499Z,3.97
2018-12-21T01:26:03.775Z,3.90
2018-12-21T01:28:30.014Z,3.83
2018-12-21T01:30:56.208Z,3.40
2018-12-21T01:33:22.379Z,4.90
2018-12-21T01:35:48.554Z,4.37
2018-12-21T01:38:14.783Z,9.43
2018-12-21T01:40:40.956Z,7.40
2018-12-21T01:43:07.119Z,7.00
2018-12-21T01:45:33.315Z,4.97
2018-12-21T01:47:59.489Z,3.30
2018-12-21T01:50:25.662Z,5.23
2018-12-21T01:52:51.859Z,4.40
2018-12-21T01:55:18.022Z,5.43
2018-12-21T01:57:44.166Z,4.03
2018-12-21T02:00:10.360Z,4.23
2018-12-21T02:02:37.256Z,5.53
2018-12-21T02:05:03.437Z,8.03
2018-12-21T02:07:30.326Z,6.43
2018-12-21T02:09:56.469Z,4.50
2018-12-21T02:12:22.683Z,3.90
2018-12-21T02:14:49.638Z,5.00
2018-12-21T02:17:15.836Z,3.90
2018-12-21T02:19:42.035Z,7.37
2018-12-21T02:22:08.204Z,5.10
2018-12-21T02:24:34.361Z,5.07
2018-12-21T02:27:00.511Z,7.57
2018-12-21T02:29:27.429Z,6.33
2018-12-21T02:31:53.582Z,5.70
2018-12-21T02:34:20.502Z,5.10
2018-12-21T02:36:47.453Z,4.77
2018-12-21T02:39:13.630Z,4.00
2018-12-21T02:41:39.795Z,4.00
2018-12-21T02:44:06.001Z,6.77
2018-12-21T02:46:32.161Z,5.43
2018-12-21T02:48:58.332Z,3.93
2018-12-21T02:51:24.497Z,12.00
2018-12-21T02:53:50.718Z,3.90
2018-12-21T02:56:16.886Z,5.37
2018-12-21T02:58:43.793Z,3.17
2018-12-21T03:01:10.040Z,7.63
2018-12-21T03:03:36.407Z,3.00
2018-12-21T03:06:02.615Z,6.23
2018-12-21T03:08:28.922Z,4.23
2018-12-21T03:10:55.096Z,3.73
2018-12-21T03:13:21.251Z,3.07
2018-12-21T03:15:47.442Z,3.67
2018-12-21T03:18:13.616Z,4.13
2018-12-21T03:20:39.774Z,4.37
2018-12-21T03:23:05.967Z,3.90
2018-12-21T03:25:32.166Z,3.90
2018-12-21T03:27:58.343Z,3.13
2018-12-21T03:30:24.508Z,3.00
2018-12-21T03:32:50.695Z,4.23
2018-12-21T03:35:16.863Z,5.73
2018-12-21T03:37:43.070Z,3.80
2018-12-21T03:40:09.992Z,6.03
2018-12-21T03:42:36.146Z,6.33
2018-12-21T03:45:03.061Z,5.47
2018-12-21T03:47:29.229Z,4.23
2018-12-21T03:49:55.412Z,5.10
2018-12-21T03:52:24.546Z,4.33
2018-12-21T03:54:47.769Z,3.67
2018-12-21T03:57:13.940Z,4.77
2018-12-21T03:59:40.855Z,4.20
2018-12-21T04:02:07.036Z,3.23
2018-12-21T04:04:33.199Z,6.37
2018-12-21T04:06:59.403Z,6.67
2018-12-21T04:09:25.572Z,3.63
2018-12-21T04:11:51.715Z,3.40
2018-12-21T04:14:17.885Z,4.33
2018-12-21T04:16:44.037Z,4.53
2018-12-21T04:19:10.249Z,4.93
2018-12-21T04:21:36.412Z,3.80
2018-12-21T04:24:02.648Z,3.40
2018-12-21T04:26:29.593Z,4.83
2018-12-21T04:28:55.758Z,6.93
2018-12-21T04:31:21.946Z,4.23
2018-12-21T04:33:48.876Z,5.40
2018-12-21T04:36:15.056Z,4.47
2018-12-21T04:38:41.242Z,2.57
2018-12-21T04:41:07.461Z,3.07
2018-12-21T04:43:33.617Z,7.30
2018-12-21T04:45:59.811Z,3.60
2018-12-21T04:48:25.965Z,9.07
2018-12-21T04:50:52.135Z,4.00
2018-12-21T04:53:18.287Z,5.63
2018-12-21T04:55:44.635Z,3.67
2018-12-21T04:58:10.785Z,2.90
2018-12-21T05:00:37.694Z,8.60
2018-12-21T05:03:03.890Z,5.07
2018-12-21T05:05:30.080Z,5.80
2018-12-21T05:07:56.990Z,3.80
2018-12-21T05:10:23.159Z,5.40
2018-12-21T05:12:49.477Z,4.37
2018-12-21T05:15:15.871Z,4.47
2018-12-21T05:17:42.073Z,4.90
2018-12-21T05:20:08.393Z,4.93
2018-12-21T05:22:34.620Z,5.30
2018-12-21T05:25:00.916Z,3.17
2018-12-21T05:27:27.934Z,3.47
2018-12-21T05:29:54.155Z,4.63
2018-12-21T05:32:20.995Z,4.57
2018-12-21T05:34:47.195Z,5.23
2018-12-21T05:37:13.438Z,2.67
2018-12-21T05:39:39.596Z,4.23
2018-12-21T05:42:05.751Z,2.40
2018-12-21T05:44:39.648Z,3.60
2018-12-21T05:47:05.823Z,3.00
2018-12-21T05:49:32.406Z,2.97
2018-12-21T05:51:58.441Z,4.90
2018-12-21T05:54:24.567Z,2.10
2018-12-21T05:56:50.688Z,5.17
2018-12-21T05:59:16.863Z,4.17
2018-12-21T06:01:43.047Z,2.53
2018-12-21T06:04:09.206Z,5.47
2018-12-21T06:06:35.362Z,3.23
2018-12-21T06:09:01.537Z,2.90
2018-12-21T06:11:27.709Z,2.63
2018-12-21T06:13:53.893Z,5.33
2018-12-21T06:16:20.019Z,3.27
2018-12-21T06:18:46.934Z,7.07
2018-12-21T06:21:13.091Z,3.50
2018-12-21T06:23:40.051Z,3.03
2018-12-21T06:26:06.211Z,4.93
2018-12-21T06:28:32.449Z,2.70
2018-12-21T06:30:58.630Z,5.37
2018-12-21T06:33:25.528Z,2.57
2018-12-21T06:35:51.669Z,2.67
2018-12-21T06:38:17.872Z,2.63
2018-12-21T06:40:44.060Z,2.67
2018-12-21T06:43:10.935Z,2.03
2018-12-21T06:45:37.126Z,2.20
2018-12-21T06:48:04.017Z,3.67
2018-12-21T06:50:30.213Z,2.47
2018-12-21T06:52:56.417Z,2.40
2018-12-21T06:55:22.604Z,3.23
2018-12-21T06:57:48.762Z,7.90
2018-12-21T07:00:14.948Z,2.00
2018-12-21T07:02:41.086Z,2.20
2018-12-21T07:05:07.253Z,1.77
2018-12-21T07:07:34.158Z,2.83
2018-12-21T07:10:00.314Z,2.90
2018-12-21T07:12:26.465Z,1.83
2018-12-21T07:14:52.622Z,1.57
2018-12-21T07:17:18.794Z,2.30
2018-12-21T07:19:45.007Z,2.73
2018-12-21T07:22:11.179Z,1.63
2018-12-21T07:24:37.326Z,1.97
2018-12-21T07:27:04.262Z,4.07
2018-12-21T07:29:31.162Z,1.77
2018-12-21T07:31:57.323Z,4.30
2018-12-21T07:34:25.912Z,2.00
2018-12-21T07:36:50.569Z,2.97
2018-12-21T07:39:16.735Z,1.90
2018-12-21T07:41:42.908Z,6.53
2018-12-21T07:44:09.063Z,2.47
2018-12-21T07:46:35.281Z,2.03
2018-12-21T07:49:01.462Z,2.67
2018-12-21T07:51:27.690Z,2.80
2018-12-21T07:53:53.858Z,2.30
2018-12-21T07:56:20.222Z,1.57
2018-12-21T07:58:46.404Z,3.17
2018-12-21T08:01:12.622Z,2.57
2018-12-21T08:03:38.797Z,3.63
2018-12-21T08:06:04.978Z,3.50
2018-12-21T08:08:31.139Z,3.43
2018-12-21T08:10:57.300Z,7.13
2018-12-21T08:13:24.184Z,2.93
2018-12-21T08:15:50.341Z,3.00
2018-12-21T08:18:16.516Z,2.00
2018-12-21T08:20:42.694Z,2.90
2018-12-21T08:23:08.849Z,2.23
2018-12-21T08:25:35.040Z,2.33
2018-12-21T08:28:01.222Z,1.67
2018-12-21T08:30:27.385Z,2.00
2018-12-21T08:32:53.580Z,2.23
2018-12-21T08:35:19.713Z,1.60
2018-12-21T08:37:45.881Z,2.10
2018-12-21T08:40:12.115Z,1.83
2018-12-21T08:42:38.318Z,2.03
2018-12-21T08:45:04.472Z,4.57
2018-12-21T08:47:31.418Z,5.27
2018-12-21T08:49:57.593Z,2.03
2018-12-21T08:52:23.776Z,1.80
2018-12-21T08:54:49.940Z,1.97
2018-12-21T08:57:16.860Z,3.03
2018-12-21T08:59:43.014Z,1.97
2018-12-21T09:02:09.240Z,2.00
2018-12-21T09:04:36.123Z,2.70
2018-12-21T09:07:02.358Z,3.00
2018-12-21T09:09:28.564Z,2.50
2018-12-21T09:11:54.723Z,1.70
2018-12-21T09:14:20.880Z,1.50
2018-12-21T09:16:47.845Z,1.80
2018-12-21T09:19:14.050Z,1.60
2018-12-21T09:21:40.208Z,3.20
2018-12-21T09:24:06.381Z,8.63
2018-12-21T09:26:32.563Z,2.40
2018-12-21T09:28:58.711Z,2.10
2018-12-21T09:31:24.880Z,5.40
2018-12-21T09:33:51.072Z,2.53
2018-12-21T09:36:17.342Z,2.73
2018-12-21T09:38:44.145Z,2.63
2018-12-21T09:41:10.339Z,1.97
2018-12-21T09:43:37.303Z,2.10
2018-12-21T09:46:03.476Z,1.33
2018-12-21T09:48:29.609Z,2.10
2018-12-21T09:50:55.732Z,2.13
2018-12-21T09:53:21.869Z,3.17
2018-12-21T09:55:48.048Z,5.00
2018-12-21T09:58:14.214Z,3.00
2018-12-21T10:00:40.350Z,1.50
2018-12-21T10:03:06.512Z,2.20
2018-12-21T10:05:32.683Z,1.10
2018-12-21T10:07:58.859Z,1.40
2018-12-21T10:10:25.023Z,1.00
2018-12-21T10:12:53.457Z,1.20
2018-12-21T10:15:17.389Z,2.33
2018-12-21T10:17:43.410Z,2.13
2018-12-21T10:20:09.560Z,1.30
2018-12-21T10:22:35.707Z,1.40
2018-12-21T10:25:01.868Z,1.00
2018-12-21T10:27:28.051Z,1.53
2018-12-21T10:29:55.003Z,2.70
2018-12-21T10:32:21.921Z,3.57
2018-12-21T10:34:48.082Z,3.17
2018-12-21T10:37:14.258Z,1.23
2018-12-21T10:39:40.406Z,1.27
2018-12-21T10:42:06.597Z,1.77
2018-12-21T10:44:32.757Z,1.73
2018-12-21T10:47:08.940Z,1.30
2018-12-21T10:49:35.807Z,1.73
2018-12-21T10:52:01.940Z,2.23
2018-12-21T10:54:28.125Z,1.80
2018-12-21T10:56:54.320Z,4.60
2018-12-21T10:59:21.191Z,1.90
2018-12-21T11:01:46.680Z,1.60
2018-12-21T11:04:12.733Z,1.80
2018-12-21T11:06:38.735Z,1.80
2018-12-21T11:09:04.718Z,1.40
2018-12-21T11:11:30.827Z,2.07
2018-12-21T11:13:57.012Z,2.90
2018-12-21T11:16:23.199Z,2.20
2018-12-21T11:18:49.402Z,1.90
2018-12-21T11:21:15.695Z,2.70
2018-12-21T11:23:41.871Z,1.73
2018-12-21T11:26:08.810Z,1.70
2018-12-21T11:28:35.000Z,1.80
2018-12-21T11:31:01.090Z,2.43
2018-12-21T11:33:27.127Z,1.50
2018-12-21T11:35:53.115Z,1.73
2018-12-21T11:38:19.230Z,1.80
2018-12-21T11:40:46.175Z,5.00
2018-12-21T11:43:13.088Z,1.33
2018-12-21T11:45:39.263Z,1.40
2018-12-21T11:48:05.423Z,1.40
2018-12-21T11:50:38.417Z,1.43
2018-12-21T11:53:19.522Z,2.03
2018-12-21T11:55:45.573Z,1.67
2018-12-21T11:58:11.578Z,1.53
2018-12-21T12:00:37.674Z,1.10
2018-12-21T12:03:04.383Z,0.90
2018-12-21T12:05:31.153Z,1.73
2018-12-21T12:07:57.211Z,0.90
2018-12-21T12:10:23.334Z,0.90
2018-12-21T12:12:49.421Z,1.00
2018-12-21T12:15:15.489Z,2.20
2018-12-21T12:17:41.475Z,1.20
2018-12-21T12:20:07.487Z,1.30
2018-12-21T12:22:33.471Z,0.53
2018-12-21T12:24:59.489Z,1.10
2018-12-21T12:27:25.494Z,0.53
2018-12-21T12:29:51.512Z,0.90
2018-12-21T12:32:17.524Z,0.63
2018-12-21T12:34:43.551Z,1.03
2018-12-21T12:37:09.554Z,0.60
2018-12-21T12:39:35.585Z,0.80
2018-12-21T12:42:03.647Z,0.97
2018-12-21T12:44:28.434Z,0.70
2018-12-21T12:46:54.459Z,0.70
2018-12-21T12:49:20.476Z,1.30
2018-12-21T12:51:46.461Z,0.63
2018-12-21T12:54:12.603Z,0.70
2018-12-21T12:56:38.775Z,0.60
2018-12-21T12:59:04.932Z,1.03
2018-12-21T13:01:31.167Z,0.77
2018-12-21T13:03:57.388Z,0.50
2018-12-21T13:06:23.472Z,0.70
2018-12-21T13:08:49.662Z,0.60
2018-12-21T13:11:15.826Z,0.67
2018-12-21T13:13:42.011Z,0.50
2018-12-21T13:16:08.125Z,1.00
2018-12-21T13:18:34.263Z,0.50
2018-12-21T13:21:06.660Z,0.60
2018-12-21T13:23:32.812Z,1.87
2018-12-21T13:25:59.713Z,1.20
2018-12-21T13:28:25.864Z,0.53
2018-12-21T13:30:52.069Z,0.90
2018-12-21T13:33:18.248Z,0.70
2018-12-21T13:35:44.366Z,0.90
2018-12-21T13:38:10.497Z,0.60
2018-12-21T13:40:36.645Z,0.70
2018-12-21T13:43:02.790Z,0.83
2018-12-21T13:45:28.998Z,0.50
2018-12-21T13:47:55.180Z,0.80
2018-12-21T13:50:21.332Z,1.40
2018-12-21T13:52:47.517Z,0.50
2018-12-21T13:55:20.243Z,0.73
2018-12-21T13:57:39.857Z,0.63
2018-12-21T14:00:06.047Z,0.60
2018-12-21T14:02:32.251Z,0.50
2018-12-21T14:04:58.367Z,0.70
2018-12-21T14:07:24.541Z,0.50
2018-12-21T14:09:50.676Z,1.00
2018-12-21T14:12:16.852Z,0.67
2018-12-21T14:14:43.003Z,0.63
2018-12-21T14:17:09.176Z,0.70
2018-12-21T14:19:35.330Z,0.73
2018-12-21T14:22:01.475Z,0.73
2018-12-21T14:24:27.631Z,0.60
2018-12-21T14:26:53.769Z,0.83
2018-12-21T14:29:19.914Z,0.50
2018-12-21T14:31:46.063Z,0.70
2018-12-21T14:34:12.212Z,0.57
2018-12-21T14:36:38.411Z,0.60
2018-12-21T14:39:04.576Z,0.70
2018-12-21T14:41:30.722Z,0.40
2018-12-21T14:43:56.871Z,0.53
2018-12-21T14:46:23.010Z,0.73
2018-12-21T14:48:49.153Z,0.60
2018-12-21T14:51:15.371Z,1.10
2018-12-21T14:53:41.493Z,0.70
2018-12-21T14:56:07.626Z,0.83
2018-12-21T14:58:33.773Z,0.47
2018-12-21T15:00:59.999Z,0.50
2018-12-21T15:03:26.169Z,1.30
2018-12-21T15:05:52.387Z,0.60
2018-12-21T15:08:18.566Z,0.80
2018-12-21T15:10:44.715Z,1.13
2018-12-21T15:13:10.876Z,0.57
2018-12-21T15:15:37.046Z,0.90
2018-12-21T15:18:03.189Z,0.60
2018-12-21T15:20:29.355Z,0.67
2018-12-21T15:22:55.545Z,0.60
2018-12-21T15:25:21.732Z,1.17
2018-12-21T15:27:47.880Z,0.80
2018-12-21T15:30:14.049Z,0.90
2018-12-21T15:32:40.202Z,0.70
2018-12-21T15:35:06.419Z,0.80
2018-12-21T15:37:42.566Z,0.60
2018-12-21T15:40:08.737Z,0.60
2018-12-21T15:42:34.924Z,0.50
2018-12-21T15:45:01.169Z,1.23
2018-12-21T15:47:27.317Z,1.17
2018-12-21T15:49:53.519Z,1.07
2018-12-21T15:52:19.704Z,0.60
2018-12-21T15:54:45.902Z,0.87
2018-12-21T15:57:12.075Z,0.70
2018-12-21T15:59:38.443Z,0.60
2018-12-21T16:02:04.615Z,0.67
2018-12-21T16:04:30.800Z,0.70
2018-12-21T16:06:56.990Z,0.50
2018-12-21T16:09:23.145Z,2.60
2018-12-21T16:11:49.299Z,3.70
2018-12-21T16:14:15.449Z,1.30
2018-12-21T16:16:41.626Z,0.60
2018-12-21T16:19:07.779Z,1.67
2018-12-21T16:21:33.962Z,0.67
2018-12-21T16:24:06.850Z,2.40
2018-12-21T16:26:26.327Z,0.60
2018-12-21T16:28:53.211Z,0.70
2018-12-21T16:31:19.414Z,1.00
2018-12-21T16:33:46.313Z,1.40
2018-12-21T16:36:12.500Z,0.80
2018-12-21T16:38:38.688Z,0.90
2018-12-21T16:41:04.842Z,0.70
2018-12-21T16:43:31.022Z,1.20
2018-12-21T16:45:57.238Z,0.60
2018-12-21T16:48:23.397Z,3.13
2018-12-21T16:50:49.592Z,1.00
2018-12-21T16:53:15.784Z,0.80
2018-12-21T16:55:41.955Z,1.10
2018-12-21T16:58:08.158Z,0.50
2018-12-21T17:00:34.319Z,0.90
2018-12-21T17:03:00.344Z,1.40
2018-12-21T17:05:26.366Z,2.83
2018-12-21T17:07:52.341Z,0.80
2018-12-21T17:10:18.937Z,0.93
2018-12-21T17:12:44.510Z,0.97
2018-12-21T17:15:10.637Z,1.43
2018-12-21T17:17:36.885Z,1.33
2018-12-21T17:20:04.542Z,2.73
2018-12-21T17:22:29.204Z,0.70
2018-12-21T17:24:55.433Z,1.47
2018-12-21T17:27:21.594Z,1.43
2018-12-21T17:29:47.749Z,2.00
2018-12-21T17:32:13.968Z,1.33
2018-12-21T17:34:40.143Z,0.70
2018-12-21T17:37:06.350Z,1.80
2018-12-21T17:39:32.568Z,1.20
2018-12-21T17:41:58.775Z,1.23
2018-12-21T17:44:24.963Z,1.27
2018-12-21T17:46:51.121Z,1.03
2018-12-21T17:49:17.321Z,0.77
2018-12-21T17:51:43.560Z,1.67
2018-12-21T17:54:09.709Z,1.10
2018-12-21T17:56:35.968Z,0.70
2018-12-21T17:59:02.187Z,1.20
2018-12-21T18:01:28.405Z,1.00
2018-12-21T18:03:54.604Z,1.13
2018-12-21T18:06:20.811Z,1.57
2018-12-21T18:08:47.032Z,1.30
2018-12-21T18:11:13.233Z,0.97
2018-12-21T18:13:39.477Z,1.57
2018-12-21T18:16:05.701Z,1.00
2018-12-21T18:18:31.896Z,1.23
2018-12-21T18:20:58.077Z,1.00
2018-12-21T18:23:24.293Z,1.73
2018-12-21T18:25:50.475Z,1.67
2018-12-21T18:28:16.684Z,1.20
2018-12-21T18:30:42.919Z,1.80
2018-12-21T18:33:10.901Z,1.37
2018-12-21T18:35:34.974Z,0.70
2018-12-21T18:38:01.123Z,1.00
2018-12-21T18:40:27.120Z,1.33
2018-12-21T18:42:54.226Z,1.40
2018-12-21T18:45:20.229Z,0.80
2018-12-21T18:47:46.233Z,1.10
2018-12-21T18:50:12.512Z,1.80
2018-12-21T18:52:38.502Z,1.50
2018-12-21T18:55:04.507Z,1.30
2018-12-21T18:57:30.497Z,1.10
2018-12-21T18:59:56.609Z,1.20
2018-12-21T19:02:22.591Z,1.17
2018-12-21T19:04:48.609Z,2.00
2018-12-21T19:07:14.615Z,1.53
2018-12-21T19:09:40.674Z,1.63
2018-12-21T19:12:06.697Z,0.90
2018-12-21T19:14:34.658Z,1.10
2018-12-21T19:16:58.646Z,1.13
2018-12-21T19:19:24.650Z,1.40
2018-12-21T19:21:50.706Z,2.30
2018-12-21T19:24:16.731Z,1.40
2018-12-21T19:26:42.805Z,1.20
2018-12-21T19:29:08.811Z,1.53
2018-12-21T19:31:35.543Z,1.60
2018-12-21T19:34:01.541Z,1.10
2018-12-21T19:36:27.671Z,1.40
2018-12-21T19:38:53.661Z,1.93
2018-12-21T19:41:19.636Z,2.03
2018-12-21T19:43:46.405Z,1.67
2018-12-21T19:46:12.386Z,2.43
2018-12-21T19:48:45.458Z,1.80
2018-12-21T19:51:11.476Z,1.97
2018-12-21T19:53:37.522Z,2.30
2018-12-21T19:56:03.567Z,1.80
2018-12-21T19:58:30.336Z,1.40
2018-12-21T20:00:56.465Z,1.70
2018-12-21T20:03:22.455Z,1.80
2018-12-21T20:05:49.269Z,2.10
2018-12-21T20:08:15.265Z,2.33
2018-12-21T20:10:41.285Z,1.43
2018-12-21T20:13:07.297Z,1.57
2018-12-21T20:15:33.299Z,1.50
2018-12-21T20:18:00.139Z,1.90
2018-12-21T20:20:26.901Z,1.40
2018-12-21T20:22:52.934Z,1.73
2018-12-21T20:25:19.127Z,1.57
2018-12-21T20:27:55.113Z,1.90
2018-12-21T20:30:21.113Z,1.90
2018-12-21T20:32:47.114Z,2.30
2018-12-21T20:35:13.140Z,1.53
2018-12-21T20:37:39.142Z,1.70
2018-12-21T20:40:05.177Z,1.60
2018-12-21T20:42:31.175Z,1.40
2018-12-21T20:44:57.161Z,1.60
2018-12-21T20:47:23.913Z,1.40
2018-12-21T20:49:49.979Z,1.53
2018-12-21T20:52:15.983Z,2.20
2018-12-21T20:54:42.083Z,1.60
2018-12-21T20:57:08.117Z,1.47
2018-12-21T20:59:34.119Z,1.17
2018-12-21T21:02:00.888Z,1.63
2018-12-21T21:04:26.881Z,3.83
2018-12-21T21:06:53.661Z,1.30
2018-12-21T21:09:19.664Z,2.30
2018-12-21T21:11:45.683Z,1.50
2018-12-21T21:14:11.694Z,1.27
2018-12-21T21:16:38.440Z,1.60
2018-12-21T21:19:05.160Z,1.07
2018-12-21T21:21:31.145Z,1.33
2018-12-21T21:23:57.146Z,1.40
2018-12-21T21:26:23.135Z,3.50
2018-12-21T21:28:49.926Z,1.33
2018-12-21T21:31:15.933Z,1.73
2018-12-21T21:33:41.997Z,1.30
2018-12-21T21:36:07.987Z,1.17
2018-12-21T21:38:34.147Z,1.43
2018-12-21T21:41:01.049Z,1.53
2018-12-21T21:43:27.157Z,1.80
2018-12-21T21:45:53.316Z,1.40
2018-12-21T21:48:19.478Z,2.00
2018-12-21T21:50:46.389Z,1.43
2018-12-21T21:53:12.546Z,1.33
2018-12-21T21:55:39.433Z,1.37
2018-12-21T21:58:05.584Z,1.53
2018-12-21T22:00:32.718Z,1.10
2018-12-21T22:02:59.512Z,1.80
2018-12-21T22:05:26.422Z,1.27
2018-12-21T22:07:52.590Z,1.20
2018-12-21T22:10:18.786Z,1.40
2018-12-21T22:12:44.981Z,2.80
2018-12-21T22:15:18.138Z,1.50
2018-12-21T22:17:45.058Z,1.40
2018-12-21T22:20:11.245Z,2.00
2018-12-21T22:22:37.386Z,1.70
2018-12-21T22:25:03.578Z,1.60
2018-12-21T22:27:29.746Z,2.33
2018-12-21T22:29:56.061Z,1.47
2018-12-21T22:32:22.163Z,1.50
2018-12-21T22:34:48.324Z,1.50
2018-12-21T22:37:14.481Z,2.60
2018-12-21T22:39:40.638Z,2.00
2018-12-21T22:42:06.782Z,4.10
2018-12-21T22:44:32.967Z,1.70
2018-12-21T22:46:59.106Z,1.40
2018-12-21T22:49:25.286Z,1.40
2018-12-21T22:51:51.438Z,1.67
2018-12-21T22:54:17.583Z,2.37
2018-12-21T22:56:43.806Z,1.73
2018-12-21T22:59:10.737Z,1.20
2018-12-21T23:01:36.984Z,1.83
2018-12-21T23:04:03.186Z,1.43
2018-12-21T23:06:29.425Z,1.20
2018-12-21T23:08:56.308Z,1.30
2018-12-21T23:11:32.499Z,1.30
2018-12-21T23:13:58.670Z,1.47
2018-12-21T23:16:24.867Z,1.77
2018-12-21T23:18:51.016Z,1.60
2018-12-21T23:21:17.211Z,5.07
2018-12-21T23:23:43.372Z,2.73
2018-12-21T23:26:10.306Z,2.30
2018-12-21T23:28:36.499Z,1.63
2018-12-21T23:31:02.674Z,2.20
2018-12-21T23:33:28.840Z,3.63
2018-12-21T23:35:55.004Z,2.20
2018-12-21T23:38:21.141Z,1.40
2018-12-21T23:40:47.299Z,1.83
2018-12-21T23:43:14.248Z,2.00
2018-12-21T23:45:40.433Z,1.43
2018-12-21T23:48:06.587Z,1.47
2018-12-21T23:50:32.736Z,1.37
2018-12-21T23:52:58.897Z,1.50
2018-12-21T23:55:25.044Z,2.27
2018-12-21T23:57:51.192Z,1.97
